createdAt,value
2022-07-26T00:01:04.445Z,98200.91
2022-07-26T00:04:16.610Z,98201.56
2022-07-26T00:07:28.685Z,98194.98
2022-07-26T00:10:44.189Z,98187.55
2022-07-26T00:13:55.893Z,98179.26
2022-07-26T00:17:08.966Z,98181.76
2022-07-26T00:20:23.301Z,98176.38
2022-07-26T00:23:38.653Z,98177.39
2022-07-26T00:26:50.257Z,98169.73
2022-07-26T00:30:01.999Z,98159.78
2022-07-26T00:33:14.605Z,98165.78
2022-07-26T00:36:35.136Z,98154.02
2022-07-26T00:39:48.074Z,98157.55
2022-07-26T00:42:59.939Z,98149.05
2022-07-26T00:46:14.226Z,98154.22
2022-07-26T00:49:26.299Z,98155.89
2022-07-26T00:52:38.130Z,98152.76
2022-07-26T00:55:50.184Z,98167.22
2022-07-26T00:59:01.773Z,98168.69
2022-07-26T01:02:15.559Z,98170.53
2022-07-26T01:05:29.510Z,98157.73
2022-07-26T01:08:41.478Z,98159.38
2022-07-26T01:11:53.207Z,98155.85
2022-07-26T01:15:04.840Z,98148.20
2022-07-26T01:18:16.527Z,98140.97
2022-07-26T01:21:32.386Z,98143.23
2022-07-26T01:24:44.242Z,98141.16
2022-07-26T01:27:56.050Z,98122.55
2022-07-26T01:31:07.993Z,98128.55
2022-07-26T01:34:19.866Z,98135.58
2022-07-26T01:37:31.558Z,98131.23
2022-07-26T01:40:43.376Z,98137.66
2022-07-26T01:43:55.030Z,98129.80
2022-07-26T01:47:07.898Z,98127.11
2022-07-26T01:50:20.205Z,98130.17
2022-07-26T01:53:31.942Z,98120.88
2022-07-26T01:56:43.704Z,98109.70
2022-07-26T01:59:55.679Z,98111.77
2022-07-26T02:03:07.926Z,98104.38
2022-07-26T02:06:19.656Z,98096.70
2022-07-26T02:09:32.021Z,98098.97
2022-07-26T02:12:45.129Z,98096.10
2022-07-26T02:15:58.900Z,98091.34
2022-07-26T02:19:10.781Z,98080.17
2022-07-26T02:22:23.142Z,98084.48
2022-07-26T02:25:35.173Z,98084.70
2022-07-26T02:28:46.710Z,98089.27
2022-07-26T02:31:59.470Z,98094.02
2022-07-26T02:35:12.711Z,98092.58
2022-07-26T02:38:25.236Z,98093.83
2022-07-26T02:41:37.179Z,98089.48
2022-07-26T02:44:48.766Z,98090.69
2022-07-26T02:48:01.881Z,98085.11
2022-07-26T02:51:14.086Z,98088.65
2022-07-26T02:54:26.346Z,98081.84
2022-07-26T02:57:46.258Z,98070.06
2022-07-26T03:00:51.934Z,98074.17
2022-07-26T03:04:03.730Z,98068.80
2022-07-26T03:07:15.348Z,98057.57
2022-07-26T03:10:27.045Z,98055.52
2022-07-26T03:13:38.682Z,98066.27
2022-07-26T03:16:50.378Z,98055.94
2022-07-26T03:20:02.405Z,98051.80
2022-07-26T03:23:14.116Z,98060.47
2022-07-26T03:26:25.913Z,98059.65
2022-07-26T03:29:37.686Z,98056.55
2022-07-26T03:32:49.568Z,98050.78
2022-07-26T03:36:01.161Z,98047.52
2022-07-26T03:39:12.792Z,98039.06
2022-07-26T03:42:24.609Z,98046.50
2022-07-26T03:45:36.389Z,98033.48
2022-07-26T03:48:48.051Z,98040.73
2022-07-26T03:52:00.188Z,98040.73
2022-07-26T03:55:24.876Z,98043.19
2022-07-26T03:58:36.827Z,98032.45
2022-07-26T04:01:51.684Z,98026.27
2022-07-26T04:05:03.357Z,98017.38
2022-07-26T04:08:15.459Z,98023.79
2022-07-26T04:11:28.920Z,98021.11
2022-07-26T04:14:42.593Z,98019.85
2022-07-26T04:17:54.960Z,98025.60
2022-07-26T04:21:07.059Z,98020.00
2022-07-26T04:24:18.653Z,98021.67
2022-07-26T04:27:30.304Z,98027.67
2022-07-26T04:30:42.268Z,98022.08
2022-07-26T04:33:54.466Z,98025.77
2022-07-26T04:37:07.657Z,98023.68
2022-07-26T04:40:23.900Z,98023.44
2022-07-26T04:43:35.853Z,98006.82
2022-07-26T04:46:47.748Z,98011.73
2022-07-26T04:49:59.608Z,98016.50
2022-07-26T04:53:11.544Z,98016.89
2022-07-26T04:56:23.296Z,98019.23
2022-07-26T05:02:35.284Z,98013.84
2022-07-26T05:05:48.191Z,98017.98
2022-07-26T05:09:01.703Z,98014.81
2022-07-26T05:12:15.850Z,98015.65
2022-07-26T05:15:35.155Z,98017.92
2022-07-26T05:18:45.932Z,98022.86
2022-07-26T05:21:55.626Z,98018.91
2022-07-26T05:25:08.373Z,98022.44
2022-07-26T05:28:20.125Z,98029.04
2022-07-26T05:31:32.926Z,98027.10
2022-07-26T05:34:44.532Z,98020.27
2022-07-26T05:37:56.540Z,98023.30
2022-07-26T05:41:08.529Z,98019.49
2022-07-26T05:44:20.286Z,98014.56
2022-07-26T05:47:32.857Z,98007.45
2022-07-26T05:50:44.621Z,98017.30
2022-07-26T05:53:56.307Z,98009.27
2022-07-26T05:57:10.199Z,98006.78
2022-07-26T06:00:23.204Z,98011.62
2022-07-26T06:03:34.962Z,98009.43
2022-07-26T06:06:46.736Z,98017.63
2022-07-26T06:09:58.686Z,98031.02
2022-07-26T06:13:10.388Z,98046.66
2022-07-26T06:16:22.296Z,98054.56
2022-07-26T06:19:36.317Z,98063.97
2022-07-26T06:22:48.189Z,98071.73
2022-07-26T06:26:00.005Z,98067.71
2022-07-26T06:29:11.934Z,98072.08
2022-07-26T06:32:23.835Z,98072.78
2022-07-26T06:35:38.508Z,98081.86
2022-07-26T06:38:50.613Z,98063.61
2022-07-26T06:42:02.472Z,98069.16
2022-07-26T06:45:16.830Z,98085.50
2022-07-26T06:59:42.858Z,98076.48
2022-07-26T07:02:56.089Z,98079.97
2022-07-26T07:11:24.133Z,98074.13
2022-07-26T07:19:21.564Z,98090.39
2022-07-26T07:40:59.797Z,98091.48
2022-07-26T07:50:17.232Z,98103.73
2022-07-26T07:53:39.323Z,98099.73
2022-07-26T08:26:26.320Z,98167.80
2022-07-26T08:29:38.376Z,98172.88
2022-07-26T08:32:50.400Z,98173.81
2022-07-26T08:41:45.320Z,98175.26
2022-07-26T08:44:57.848Z,98203.22
2022-07-26T08:51:14.671Z,98223.03
2022-07-26T08:54:27.121Z,98240.91
2022-07-26T08:57:38.955Z,98238.16
2022-07-26T09:00:51.234Z,98249.48
2022-07-26T09:04:28.789Z,98264.09
2022-07-26T09:07:28.428Z,98264.24
2022-07-26T09:10:43.607Z,98266.72
2022-07-26T09:14:07.052Z,98267.39
2022-07-26T09:17:20.212Z,98275.27
2022-07-26T09:20:34.504Z,98272.41
2022-07-26T09:23:48.228Z,98283.27
2022-07-26T09:27:08.179Z,98278.71
2022-07-26T09:34:04.605Z,98280.38
2022-07-26T09:37:16.929Z,98298.02
2022-07-26T09:40:38.629Z,98293.41
2022-07-26T09:43:54.104Z,98307.86
2022-07-26T09:47:06.628Z,98310.43
2022-07-26T09:50:25.773Z,98319.46
2022-07-26T09:53:51.599Z,98321.00
2022-07-26T09:57:04.323Z,98334.16
2022-07-26T10:00:21.501Z,98330.03
2022-07-26T10:03:34.822Z,98335.81
2022-07-26T10:19:02.579Z,98349.08
2022-07-26T10:26:04.453Z,98354.95
2022-07-26T10:29:32.348Z,98352.38
2022-07-26T10:32:44.688Z,98366.15
2022-07-26T10:35:56.561Z,98370.27
2022-07-26T10:39:16.563Z,98369.68
2022-07-26T10:42:28.332Z,98375.79
2022-07-26T10:45:51.445Z,98379.48
2022-07-26T10:49:08.251Z,98375.11
2022-07-26T10:52:21.089Z,98378.45
2022-07-26T10:55:32.880Z,98384.95
2022-07-26T10:58:50.841Z,98380.71
2022-07-26T11:02:02.941Z,98385.65
2022-07-26T11:05:18.603Z,98381.50
2022-07-26T11:09:02.480Z,98383.23
2022-07-26T11:12:27.212Z,98389.67
2022-07-26T11:15:40.002Z,98388.48
2022-07-26T11:29:37.283Z,98406.48
2022-07-26T11:32:46.219Z,98406.48
2022-07-26T11:52:25.654Z,98414.34
2022-07-26T11:56:19.289Z,98405.56
2022-07-26T11:59:32.981Z,98406.75
2022-07-26T12:14:18.731Z,98393.63
2022-07-26T12:26:42.905Z,98383.75
2022-07-26T12:37:40.994Z,98392.20
2022-07-26T12:40:53.318Z,98389.61
2022-07-26T12:44:07.127Z,98394.34
2022-07-26T12:56:23.779Z,98405.94
2022-07-26T13:23:46.158Z,98420.21
2022-07-26T13:31:55.863Z,98416.95
2022-07-26T13:59:13.421Z,98501.41
2022-07-26T14:02:26.458Z,98491.69
2022-07-26T14:05:39.518Z,98497.05
2022-07-26T14:08:52.963Z,98502.67
2022-07-26T14:12:06.109Z,98511.19
2022-07-26T14:15:22.947Z,98509.11
2022-07-26T14:18:36.773Z,98505.18
2022-07-26T14:21:59.913Z,98508.06
2022-07-26T14:25:07.802Z,98518.01
2022-07-26T14:28:20.106Z,98520.92
2022-07-26T14:31:34.137Z,98523.83
2022-07-26T14:34:46.219Z,98519.49
2022-07-26T14:37:58.139Z,98517.41
2022-07-26T14:41:10.383Z,98526.34
2022-07-26T14:44:26.378Z,98522.81
2022-07-26T14:47:38.183Z,98522.59
2022-07-26T14:51:09.026Z,98514.29
2022-07-26T14:54:07.930Z,98504.99
2022-07-26T14:57:24.533Z,98504.38
2022-07-26T15:00:39.598Z,98506.82
2022-07-26T15:03:52.936Z,98512.61
2022-07-26T15:07:04.775Z,98519.47
2022-07-26T15:10:21.449Z,98516.36
2022-07-26T15:13:33.304Z,98513.27
2022-07-26T15:16:45.377Z,98519.87
2022-07-26T15:19:57.561Z,98526.31
2022-07-26T15:23:11.648Z,98532.11
2022-07-26T15:26:23.707Z,98526.09
2022-07-26T15:29:36.040Z,98517.61
2022-07-26T15:32:48.789Z,98518.84
2022-07-26T15:36:05.695Z,98520.73
2022-07-26T15:39:17.809Z,98517.60
2022-07-26T15:42:29.428Z,98519.27
2022-07-26T15:45:43.813Z,98524.64
2022-07-26T15:48:55.804Z,98523.00
2022-07-26T15:52:08.882Z,98531.94
2022-07-26T15:55:22.937Z,98527.16
2022-07-26T15:58:34.842Z,98530.89
2022-07-26T16:01:47.400Z,98532.35
2022-07-26T16:04:59.119Z,98526.77
2022-07-26T16:08:11.711Z,98534.21
2022-07-26T16:11:23.617Z,98536.90
2022-07-26T16:14:35.296Z,98544.98
2022-07-26T16:17:47.282Z,98543.97
2022-07-26T16:20:59.252Z,98552.27
2022-07-26T16:27:53.434Z,98549.98
2022-07-26T16:31:06.134Z,98546.66
2022-07-26T16:34:18.828Z,98540.02
2022-07-26T16:37:31.002Z,98536.71
2022-07-26T16:52:40.536Z,98538.14
2022-07-26T17:00:15.821Z,98531.72
2022-07-26T17:03:27.835Z,98530.47
2022-07-26T17:10:39.199Z,98535.23
2022-07-26T17:13:51.285Z,98538.75
2022-07-26T17:17:14.989Z,98536.27
2022-07-26T17:20:27.122Z,98540.41
2022-07-26T17:27:20.105Z,98541.22
2022-07-26T17:38:13.435Z,98502.18
2022-07-26T17:41:32.419Z,98540.81
2022-07-26T17:44:54.998Z,98543.27
2022-07-26T17:52:09.821Z,98544.28
2022-07-26T17:55:22.789Z,98554.04
2022-07-26T18:06:33.378Z,98557.75
2022-07-26T18:09:45.352Z,98563.77
2022-07-26T18:12:58.106Z,98563.13
2022-07-26T18:16:13.342Z,98574.72
2022-07-26T18:27:44.119Z,98535.71
2022-07-26T18:38:42.449Z,98574.27
2022-07-26T18:41:55.258Z,98575.11
2022-07-26T18:45:07.239Z,98587.52
2022-07-26T18:48:20.998Z,98591.86
2022-07-26T18:51:34.697Z,98582.94
2022-07-26T18:55:01.262Z,98576.22
2022-07-26T18:58:13.169Z,98580.63
2022-07-26T19:40:10.706Z,98567.94
2022-07-26T19:43:35.832Z,98550.27
2022-07-26T19:47:00.183Z,98569.36
2022-07-26T19:50:18.667Z,98558.81
2022-07-26T19:53:40.730Z,98559.61
2022-07-26T20:29:17.423Z,98563.62
2022-07-26T20:32:29.118Z,98576.57
2022-07-26T20:35:41.502Z,98578.81
2022-07-26T20:39:10.001Z,98579.19
2022-07-26T20:42:24.620Z,98585.78
2022-07-26T20:48:40.081Z,98591.94
2022-07-26T20:51:52.231Z,98586.13
2022-07-26T20:55:04.024Z,98599.34
2022-07-26T20:58:15.981Z,98594.77
2022-07-26T21:01:29.663Z,98599.08
2022-07-26T21:10:42.134Z,98599.85
2022-07-26T21:13:53.963Z,98600.45
2022-07-26T21:17:11.594Z,98592.13
2022-07-26T21:26:55.255Z,98598.03
2022-07-26T21:33:44.798Z,98604.98
2022-07-26T21:36:57.183Z,98613.24
2022-07-26T21:40:10.632Z,98614.28
2022-07-26T21:43:22.581Z,98616.33
2022-07-26T21:46:35.907Z,98619.38
2022-07-26T21:49:48.062Z,98620.62
2022-07-26T21:52:59.811Z,98621.83
2022-07-26T21:56:12.326Z,98619.90
2022-07-26T21:59:24.191Z,98623.15
2022-07-26T22:02:36.057Z,98617.67
2022-07-26T22:05:48.737Z,98616.02
2022-07-26T22:09:02.817Z,98618.91
2022-07-26T22:12:15.973Z,98623.43
2022-07-26T22:19:22.727Z,98622.54
2022-07-26T22:26:14.986Z,98625.14
2022-07-26T22:33:12.066Z,98623.02
2022-07-26T22:56:46.578Z,98622.33
2022-07-26T23:03:38.508Z,98617.42
2022-07-26T23:11:48.748Z,98625.21
2022-07-26T23:15:51.535Z,98619.84
2022-07-26T23:19:00.726Z,98618.16
2022-07-26T23:26:30.162Z,98621.49
2022-07-26T23:29:44.674Z,98620.69
2022-07-26T23:32:58.095Z,98623.91
2022-07-26T23:36:10.427Z,98622.23
2022-07-26T23:47:20.057Z,98626.89
2022-07-26T23:50:32.371Z,98638.61
2022-07-26T23:53:44.135Z,98635.02
